Time;durP1;ratioP1;P1;durP2;ratioP2;P2;SDS_P1;SDS_P2;PMS_P1;PMS_P2;Temp;Humidity;BMP_temperature;BMP_pressure;BME280_temperature;BME280_humidity;BME280_pressure;Samples;Min_cycle;Max_cycle;Signal;HPM_P1;HPM_P2
2023/01/17 00:02:14;;;;;;;7.00;1.50;;;;;;;2.42;100.00;98371.22;4992706;28;20506;-87
2023/01/17 00:10:14;;;;;;;7.38;1.40;;;;;;;2.33;100.00;98371.94;4966267;28;20052;-86
2023/01/17 00:12:46;;;;;;;3.92;1.27;;;;;;;2.32;100.00;98375.47;4964529;28;20089;-86
2023/01/17 00:15:12;;;;;;;2.50;1.02;;;;;;;2.31;100.00;98384.19;4953804;28;20066;-86
2023/01/17 00:17:37;;;;;;;7.07;1.55;;;;;;;2.26;100.00;98383.75;4954323;29;20031;-86
2023/01/17 01:34:52;;;;;;;2.97;1.20;;;;;;;1.43;100.00;98484.38;4953276;29;20046;-86
2023/01/17 01:37:17;;;;;;;2.22;1.38;;;;;;;1.39;100.00;98493.34;4959523;28;20027;-86
2023/01/17 01:39:43;;;;;;;2.00;1.50;;;;;;;1.36;100.00;98503.91;4978598;28;20034;-85
2023/01/17 01:42:16;;;;;;;2.00;1.60;;;;;;;1.28;100.00;98511.44;4988792;28;20403;-86
2023/01/17 01:44:43;;;;;;;2.20;1.90;;;;;;;1.25;100.00;98515.91;4984858;28;20386;-86
2023/01/17 01:47:12;;;;;;;2.10;1.85;;;;;;;1.21;100.00;98522.25;4989118;28;20046;-86
2023/01/17 01:49:38;;;;;;;3.05;2.00;;;;;;;1.18;100.00;98522.44;4989253;28;20030;-86
2023/01/17 01:52:05;;;;;;;4.45;1.80;;;;;;;1.15;100.00;98538.22;4951712;29;20043;-87
2023/01/17 01:54:38;;;;;;;3.45;2.08;;;;;;;1.11;100.00;98539.38;4969387;28;20063;-87
2023/01/17 01:57:08;;;;;;;3.67;2.15;;;;;;;1.14;100.00;98546.09;4968907;28;20491;-87
2023/01/17 01:59:37;;;;;;;5.93;2.30;;;;;;;1.09;100.00;98549.00;4981887;28;20414;-86
2023/01/17 02:02:02;;;;;;;9.07;2.85;;;;;;;1.13;100.00;98552.19;4987579;28;20509;-86
2023/01/17 02:04:28;;;;;;;2.60;2.28;;;;;;;1.14;100.00;98552.09;4991615;28;20037;-86
2023/01/17 02:07:06;;;;;;;3.58;2.20;;;;;;;1.16;100.00;98560.56;4974021;28;20085;-86
2023/01/17 02:09:31;;;;;;;4.28;2.60;;;;;;;1.17;100.00;98554.47;4973244;28;20418;-86
2023/01/17 02:11:57;;;;;;;5.68;2.78;;;;;;;1.17;100.00;98551.03;4983256;28;20049;-86
2023/01/17 02:14:23;;;;;;;6.60;2.70;;;;;;;1.18;100.00;98561.28;4983010;28;20407;-86
2023/01/17 02:17:39;;;;;;;4.93;2.55;;;;;;;1.20;100.00;98567.22;5005683;28;20030;-86
2023/01/17 02:20:35;;;;;;;4.40;2.70;;;;;;;1.23;100.00;98581.69;4972824;28;20063;-86
2023/01/17 02:23:04;;;;;;;7.15;2.42;;;;;;;1.23;100.00;98585.13;4974519;28;20074;-86
2023/01/17 02:25:44;;;;;;;5.10;1.90;;;;;;;1.25;100.00;98590.19;4970403;28;20512;-86
2023/01/17 02:28:35;;;;;;;3.60;1.50;;;;;;;1.24;100.00;98591.94;4971530;28;20019;-87
2023/01/17 02:31:29;;;;;;;5.68;1.60;;;;;;;1.16;100.00;98599.41;4986639;28;20045;-87
2023/01/17 02:34:30;;;;;;;4.57;1.10;;;;;;;1.11;100.00;98604.09;4983774;28;20065;-87
2023/01/17 02:37:04;;;;;;;5.13;1.10;;;;;;;0.98;100.00;98592.97;4947569;28;20400;-87
2023/01/17 02:39:37;;;;;;;2.42;0.90;;;;;;;0.91;100.00;98581.41;4977770;28;20094;-87
2023/01/17 02:42:13;;;;;;;4.93;1.13;;;;;;;0.88;100.00;98568.69;4970839;28;20122;-87
2023/01/17 02:44:43;;;;;;;3.58;0.80;;;;;;;0.74;100.00;98555.88;4969016;28;20546;-87
2023/01/17 02:47:26;;;;;;;4.22;0.70;;;;;;;0.80;100.00;98566.66;4981047;28;20253;-88
2023/01/17 02:50:04;;;;;;;6.55;1.10;;;;;;;0.78;100.00;98559.88;4990761;28;20065;-87
2023/01/17 02:52:49;;;;;;;4.10;0.90;;;;;;;0.77;100.00;98573.78;4969837;28;20056;-88
2023/01/17 02:55:27;;;;;;;5.65;1.00;;;;;;;0.78;100.00;98584.00;4978451;28;20042;-88
2023/01/17 02:57:52;;;;;;;7.00;0.95;;;;;;;0.71;100.00;98587.13;4967993;28;20042;-87
2023/01/17 03:00:21;;;;;;;3.97;1.00;;;;;;;0.66;100.00;98592.63;4975795;28;20456;-86
2023/01/17 03:03:00;;;;;;;3.15;0.77;;;;;;;0.57;100.00;98593.28;4977833;28;20031;-84
2023/01/17 03:05:46;;;;;;;2.80;0.85;;;;;;;0.56;100.00;98596.81;4957092;28;20160;-84
2023/01/17 03:08:12;;;;;;;3.75;1.02;;;;;;;0.49;100.00;98611.94;4966630;28;20039;-85
2023/01/17 03:10:38;;;;;;;5.20;0.80;;;;;;;0.41;100.00;98613.41;4970126;28;20098;-84
2023/01/17 03:13:04;;;;;;;2.50;0.70;;;;;;;0.40;100.00;98614.28;4961776;28;20042;-85
2023/01/17 03:15:30;;;;;;;5.30;0.82;;;;;;;0.29;100.00;98617.63;4967724;28;20627;-85
2023/01/17 03:18:00;;;;;;;2.50;0.90;;;;;;;0.22;100.00;98618.97;4966042;28;20125;-86
2023/01/17 03:20:26;;;;;;;4.80;1.13;;;;;;;0.19;100.00;98609.66;4969684;28;20453;-85
2023/01/17 03:22:51;;;;;;;3.13;0.85;;;;;;;0.18;100.00;98609.75;4988630;28;20030;-84
2023/01/17 03:25:17;;;;;;;2.97;1.00;;;;;;;0.15;100.00;98612.56;4970919;28;20477;-84
2023/01/17 03:27:43;;;;;;;3.42;0.80;;;;;;;0.07;100.00;98607.09;4976410;28;20066;-85
2023/01/17 03:30:09;;;;;;;5.38;1.20;;;;;;;0.07;100.00;98615.66;4975273;28;20105;-85
2023/01/17 03:32:34;;;;;;;3.50;1.20;;;;;;;0.07;100.00;98609.66;4987415;28;20042;-85
2023/01/17 03:35:00;;;;;;;4.57;1.10;;;;;;;0.07;100.00;98609.66;4989551;28;20042;-86
2023/01/17 03:37:25;;;;;;;4.60;1.00;;;;;;;0.04;100.00;98609.88;4983428;28;20406;-86
2023/01/17 03:39:50;;;;;;;3.97;1.10;;;;;;;-0.02;100.00;98606.75;4969356;28;20045;-86
2023/01/17 03:42:16;;;;;;;5.88;1.35;;;;;;;-0.02;100.00;98617.09;4967685;28;20049;-86
2023/01/17 03:44:41;;;;;;;3.10;1.25;;;;;;;-0.05;100.00;98624.22;4972238;28;20039;-86
2023/01/17 03:47:10;;;;;;;4.50;1.45;;;;;;;-0.05;100.00;98617.28;4983009;28;20100;-86
2023/01/17 03:49:36;;;;;;;5.63;1.90;;;;;;;-0.05;100.00;98625.03;4981769;28;20399;-86
2023/01/17 03:52:05;;;;;;;3.97;2.00;;;;;;;-0.06;100.00;98625.16;4970920;28;20035;-85
2023/01/17 03:54:30;;;;;;;5.85;1.80;;;;;;;-0.08;100.00;98627.84;4967082;28;20473;-86
2023/01/17 03:56:55;;;;;;;3.90;2.08;;;;;;;-0.12;100.00;98618.63;4959910;28;20033;-86
2023/01/17 03:59:21;;;;;;;8.77;2.38;;;;;;;-0.13;100.00;98613.56;4993981;28;20034;-85
2023/01/17 04:01:49;;;;;;;5.82;2.15;;;;;;;-0.13;100.00;98614.38;4983560;28;20037;-86
2023/01/17 04:04:14;;;;;;;4.93;2.50;;;;;;;-0.14;100.00;98625.66;4982044;28;20483;-86
2023/01/17 04:06:40;;;;;;;4.88;2.60;;;;;;;-0.14;100.00;98622.25;4991212;28;20038;-86
2023/01/17 04:09:06;;;;;;;6.10;2.97;;;;;;;-0.11;100.00;98622.88;4988919;28;20042;-87
2023/01/17 04:11:31;;;;;;;5.78;3.05;;;;;;;-0.11;100.00;98622.03;5002543;28;20042;-87
2023/01/17 04:13:56;;;;;;;11.20;3.50;;;;;;;-0.10;100.00;98623.69;4991844;28;20050;-86
2023/01/17 04:16:27;;;;;;;7.43;3.30;;;;;;;-0.14;100.00;98628.25;4978535;28;20596;-87
2023/01/17 04:18:52;;;;;;;6.05;3.08;;;;;;;-0.14;100.00;98620.50;4984955;28;20054;-86
2023/01/17 04:21:20;;;;;;;6.32;3.45;;;;;;;-0.16;100.00;98618.94;4992464;28;20042;-86
2023/01/17 04:23:46;;;;;;;8.02;3.35;;;;;;;-0.18;100.00;98626.78;4985874;28;20034;-86
2023/01/17 04:26:12;;;;;;;6.25;3.13;;;;;;;-0.15;100.00;98624.00;4990621;28;20125;-86
2023/01/17 04:28:37;;;;;;;7.72;3.45;;;;;;;-0.17;100.00;98618.09;4982991;28;20039;-86
2023/01/17 04:31:02;;;;;;;9.20;3.28;;;;;;;-0.17;100.00;98619.88;4975314;28;20479;-86
2023/01/17 04:33:28;;;;;;;9.23;3.42;;;;;;;-0.16;100.00;98617.19;4992180;28;20094;-86
2023/01/17 04:35:54;;;;;;;6.28;2.95;;;;;;;-0.18;100.00;98615.63;4971922;28;20031;-86
2023/01/17 04:38:20;;;;;;;7.72;2.88;;;;;;;-0.21;100.00;98611.50;4990979;28;20038;-86
2023/01/17 04:40:45;;;;;;;6.75;2.65;;;;;;;-0.22;100.00;98609.84;4990568;28;20042;-87
2023/01/17 04:43:10;;;;;;;6.97;2.72;;;;;;;-0.18;100.00;98615.63;4983712;28;20041;-86
2023/01/17 04:45:37;;;;;;;7.97;3.03;;;;;;;-0.19;100.00;98621.72;4977809;28;20121;-86
2023/01/17 04:48:06;;;;;;;5.75;2.55;;;;;;;-0.20;100.00;98626.06;4991914;28;20156;-86
2023/01/17 04:50:32;;;;;;;8.13;2.95;;;;;;;-0.18;100.00;98618.22;4989869;28;20042;-85
2023/01/17 04:52:58;;;;;;;7.85;3.33;;;;;;;-0.19;100.00;98629.47;4986194;28;20447;-86
2023/01/17 04:55:23;;;;;;;5.57;3.53;;;;;;;-0.18;100.00;98631.13;4969265;28;20453;-86
2023/01/17 04:57:49;;;;;;;9.23;4.78;;;;;;;-0.17;100.00;98628.44;4973983;28;20054;-86
2023/01/17 05:00:15;;;;;;;11.88;6.10;;;;;;;-0.17;100.00;98627.63;4989589;28;20129;-85
2023/01/17 05:02:40;;;;;;;11.40;7.15;;;;;;;-0.15;100.00;98636.09;4990468;28;20434;-85
2023/01/17 05:05:06;;;;;;;12.30;7.78;;;;;;;-0.15;100.00;98633.50;4990571;28;20443;-87
2023/01/17 05:07:32;;;;;;;11.70;8.40;;;;;;;-0.19;100.00;98625.13;4978807;28;20031;-86
2023/01/17 05:09:59;;;;;;;16.90;9.30;;;;;;;-0.19;100.00;98630.31;4970813;28;20058;-86
2023/01/17 05:12:25;;;;;;;15.88;10.18;;;;;;;-0.20;100.00;98636.41;4962125;28;20069;-86
2023/01/17 05:14:51;;;;;;;19.98;10.95;;;;;;;-0.18;100.00;98626.78;4972660;28;20066;-86
2023/01/17 05:17:16;;;;;;;6.15;3.50;;;;;;;-0.13;100.00;98634.22;4971488;28;20047;-86
2023/01/17 05:19:41;;;;;;;19.13;12.43;;;;;;;-0.16;100.00;98627.50;4971295;28;20043;-86
2023/01/17 05:22:13;;;;;;;21.25;12.50;;;;;;;-0.18;100.00;98633.72;4978360;28;20491;-86
2023/01/17 05:24:43;;;;;;;16.35;12.43;;;;;;;-0.19;100.00;98632.06;4971332;28;20030;-86
2023/01/17 05:27:10;;;;;;;19.27;12.10;;;;;;;-0.21;100.00;98629.56;4971592;28;20079;-86
2023/01/17 05:29:35;;;;;;;18.23;11.68;;;;;;;-0.26;100.00;98631.63;4989212;28;20027;-86
2023/01/17 05:32:04;;;;;;;17.27;10.85;;;;;;;-0.25;100.00;98638.47;4971559;28;20078;-86
2023/01/17 05:34:29;;;;;;;11.82;10.20;;;;;;;-0.25;100.00;98640.22;4971779;28;20049;-87
2023/01/17 05:36:55;;;;;;;11.68;9.15;;;;;;;-0.27;100.00;98642.06;4988293;28;20038;-86
2023/01/17 05:39:20;;;;;;;13.90;9.27;;;;;;;-0.33;100.00;98643.31;4986448;28;20050;-86
2023/01/17 05:41:46;;;;;;;14.63;9.20;;;;;;;-0.33;100.00;98648.47;4977110;28;20034;-86
2023/01/17 05:44:12;;;;;;;16.75;8.50;;;;;;;-0.35;100.00;98660.66;4977411;28;20043;-86
2023/01/17 05:46:37;;;;;;;15.90;8.82;;;;;;;-0.35;100.00;98655.50;4990234;28;20038;-86
2023/01/17 05:49:03;;;;;;;12.45;8.05;;;;;;;-0.40;100.00;98663.53;4991601;28;20043;-86
2023/01/17 05:51:28;;;;;;;9.30;7.35;;;;;;;-0.38;100.00;98671.19;4992437;28;20030;-86
2023/01/17 05:53:54;;;;;;;13.82;7.80;;;;;;;-0.40;100.00;98673.00;4992211;28;20522;-90
2023/01/17 05:56:19;;;;;;;14.23;9.77;;;;;;;-0.41;100.00;98679.09;4979775;28;20039;-86
2023/01/17 05:58:45;;;;;;;15.02;10.95;;;;;;;-0.42;100.00;98677.44;4973306;28;20034;-86
2023/01/17 06:01:10;;;;;;;18.00;11.95;;;;;;;-0.45;100.00;98670.72;4974349;28;20121;-86
2023/01/17 06:03:36;;;;;;;15.15;12.88;;;;;;;-0.44;100.00;98671.56;4985706;28;20487;-86
2023/01/17 06:06:01;;;;;;;19.92;14.45;;;;;;;-0.43;100.00;98673.22;4988321;28;20056;-86
2023/01/17 06:08:26;;;;;;;17.55;14.57;;;;;;;-0.47;100.00;98671.75;4985522;28;20601;-86
2023/01/17 06:10:52;;;;;;;19.92;16.15;;;;;;;-0.51;100.00;98663.38;4991598;28;20042;-86
2023/01/17 06:13:20;;;;;;;26.45;15.20;;;;;;;-0.53;100.00;98657.47;4990116;28;20073;-86
2023/01/17 06:15:46;;;;;;;20.63;15.52;;;;;;;-0.56;100.00;98667.19;4966643;28;20039;-86
2023/01/17 06:18:14;;;;;;;22.50;15.90;;;;;;;-0.60;100.00;98665.72;4953097;29;20384;-86
2023/01/17 06:20:40;;;;;;;21.60;16.02;;;;;;;-0.66;100.00;98666.94;4951264;29;20472;-91
2023/01/17 06:23:27;;;;;;;21.98;15.98;;;;;;;-0.65;100.00;98666.84;4976816;28;20046;-86
2023/01/17 06:25:52;;;;;;;22.63;15.57;;;;;;;-0.70;100.00;98671.47;4992154;28;20042;-86
2023/01/17 06:28:20;;;;;;;22.90;16.15;;;;;;;-0.70;100.00;98666.31;4975469;28;20394;-87
2023/01/17 06:30:46;;;;;;;25.05;16.92;;;;;;;-0.71;100.00;98671.56;4959752;28;20086;-86
2023/01/17 06:33:13;;;;;;;27.70;15.98;;;;;;;-0.74;100.00;98670.00;4971925;28;20470;-91
2023/01/17 06:35:39;;;;;;;22.05;15.73;;;;;;;-0.78;100.00;98665.13;4971035;28;20191;-88
2023/01/17 06:38:05;;;;;;;24.52;16.20;;;;;;;-0.80;100.00;98669.53;4971593;28;20042;-86
2023/01/17 06:40:31;;;;;;;22.35;16.45;;;;;;;-0.81;100.00;98673.88;4972430;28;20039;-86
2023/01/17 06:43:00;;;;;;;22.45;16.05;;;;;;;-0.81;100.00;98683.38;4970278;28;20041;-86
2023/01/17 06:45:28;;;;;;;21.33;15.20;;;;;;;-0.84;100.00;98673.25;4982260;28;20030;-87
2023/01/17 06:47:58;;;;;;;20.80;15.75;;;;;;;-0.86;100.00;98680.25;4975918;28;20039;-86
2023/01/17 06:50:24;;;;;;;27.40;15.60;;;;;;;-0.86;100.00;98686.25;4960056;28;20045;-87
2023/01/17 06:52:55;;;;;;;22.92;15.80;;;;;;;-0.92;100.00;98678.88;4992826;28;20040;-87
2023/01/17 06:55:20;;;;;;;24.98;16.27;;;;;;;-0.96;100.00;98682.59;4981460;28;20031;-87
2023/01/17 06:57:47;;;;;;;25.13;15.48;;;;;;;-0.95;100.00;98677.31;4970656;28;20033;-88
2023/01/17 07:00:13;;;;;;;21.48;15.38;;;;;;;-0.99;100.00;98675.84;4970725;28;20038;-87
2023/01/17 07:02:39;;;;;;;23.08;15.68;;;;;;;-0.98;100.00;98682.69;4981410;28;20093;-87
2023/01/17 07:05:04;;;;;;;21.25;15.68;;;;;;;-0.99;100.00;98680.19;4976540;28;20042;-88
2023/01/17 07:07:32;;;;;;;22.27;15.65;;;;;;;-1.03;100.00;98686.47;4985184;28;20118;-87
2023/01/17 07:09:57;;;;;;;25.85;16.40;;;;;;;-1.04;100.00;98677.06;4967908;28;20041;-87
2023/01/17 07:12:22;;;;;;;26.85;15.95;;;;;;;-1.06;100.00;98684.06;4985834;28;20034;-87
2023/01/17 07:14:54;;;;;;;10.65;5.63;;;;;;;-0.98;100.00;98693.00;4972240;28;20503;-87
2023/01/17 07:17:19;;;;;;;13.05;5.97;;;;;;;-1.00;100.00;98687.09;4975762;28;20089;-87
2023/01/17 07:19:44;;;;;;;22.55;15.90;;;;;;;-1.06;100.00;98681.50;4965184;28;20544;-87
2023/01/17 07:22:10;;;;;;;23.50;16.83;;;;;;;-1.07;100.00;98683.25;5001266;28;20046;-92
2023/01/17 07:24:36;;;;;;;23.05;16.20;;;;;;;-1.08;100.00;98680.75;4969504;28;20043;-88
2023/01/17 07:27:07;;;;;;;13.48;6.13;;;;;;;-1.01;100.00;98697.53;4970054;28;20047;-92
2023/01/17 07:29:33;;;;;;;10.52;5.28;;;;;;;-1.03;100.00;98694.22;4980908;28;20034;-87
2023/01/17 07:31:58;;;;;;;25.83;16.45;;;;;;;-1.12;100.00;98689.63;4961843;28;20112;-88
2023/01/17 07:34:23;;;;;;;23.70;16.83;;;;;;;-1.15;100.00;98689.81;4973334;28;20085;-88
2023/01/17 07:36:49;;;;;;;11.85;6.40;;;;;;;-1.06;100.00;98699.56;4978154;28;20050;-88
2023/01/17 07:39:15;;;;;;;16.55;5.93;;;;;;;-1.07;100.00;98700.47;4970690;28;20035;-92
2023/01/17 07:41:41;;;;;;;27.27;16.65;;;;;;;-1.15;100.00;98697.53;4985182;28;20069;-89
2023/01/17 07:44:09;;;;;;;24.88;17.73;;;;;;;-1.16;100.00;98703.63;4971317;28;20676;-88
2023/01/17 07:46:34;;;;;;;25.30;17.70;;;;;;;-1.18;100.00;98708.06;4965684;28;20043;-89
2023/01/17 07:49:01;;;;;;;16.88;5.90;;;;;;;-1.11;100.00;98702.44;5003297;28;20601;-89
2023/01/17 07:51:26;;;;;;;12.88;6.53;;;;;;;-1.10;100.00;98711.81;4972517;28;20038;-88
2023/01/17 07:53:51;;;;;;;26.75;17.52;;;;;;;-1.17;100.00;98707.97;4974787;28;20041;-87
2023/01/17 07:56:17;;;;;;;22.52;17.70;;;;;;;-1.18;100.00;98706.31;4987188;28;20041;-88
2023/01/17 07:58:42;;;;;;;25.13;18.73;;;;;;;-1.21;100.00;98705.63;4979029;28;20042;-88
2023/01/17 08:01:10;;;;;;;21.30;18.30;;;;;;;-1.19;100.00;98712.38;4975232;28;20038;-89
2023/01/17 08:03:41;;;;;;;28.98;19.10;;;;;;;-1.18;100.00;98714.03;4971506;28;20521;-89
2023/01/17 08:06:24;;;;;;;24.58;19.27;;;;;;;-1.13;100.00;98708.59;4974583;28;20038;-88
2023/01/17 08:08:50;;;;;;;29.40;20.25;;;;;;;-1.19;100.00;98698.66;4972826;28;20054;-88
2023/01/17 08:11:15;;;;;;;30.48;19.23;;;;;;;-1.16;100.00;98703.63;4981745;28;20506;-88
2023/01/17 08:13:41;;;;;;;25.23;19.27;;;;;;;-1.10;100.00;98711.00;4975493;28;20035;-90
2023/01/17 08:16:10;;;;;;;25.75;19.73;;;;;;;-1.05;100.00;98716.69;4971846;28;20035;-93
2023/01/17 08:18:36;;;;;;;18.05;6.82;;;;;;;-0.97;100.00;98712.72;4974883;28;20038;-92
2023/01/17 08:21:13;;;;;;;23.95;20.17;;;;;;;-0.99;100.00;98711.16;4975184;28;20041;-90
2023/01/17 08:23:40;;;;;;;26.10;19.45;;;;;;;-0.99;100.00;98706.81;4969299;28;20180;-89
2023/01/17 08:26:05;;;;;;;30.17;21.05;;;;;;;-0.94;100.00;98714.28;4981877;28;20125;-89
2023/01/17 08:28:30;;;;;;;27.98;20.23;;;;;;;-0.89;100.00;98716.59;4992635;28;20045;-89
2023/01/17 08:30:56;;;;;;;29.98;21.10;;;;;;;-0.88;100.00;98719.06;4995992;28;20037;-90
2023/01/17 08:33:21;;;;;;;24.35;20.58;;;;;;;-0.87;100.00;98725.06;4992469;28;20042;-89
2023/01/17 08:35:59;;;;;;;21.17;7.43;;;;;;;-0.78;100.00;98727.94;4998065;28;20031;-90
2023/01/17 08:38:24;;;;;;;26.90;20.23;;;;;;;-0.86;100.00;98722.38;5006355;28;20702;-88
2023/01/17 08:40:50;;;;;;;28.67;20.88;;;;;;;-0.83;100.00;98731.69;4990888;28;20067;-88
2023/01/17 08:43:15;;;;;;;26.10;20.65;;;;;;;-0.81;100.00;98729.84;4994833;28;20034;-88
2023/01/17 08:45:44;;;;;;;32.72;21.23;;;;;;;-0.81;100.00;98738.41;4992382;28;20015;-88
2023/01/17 08:48:09;;;;;;;25.35;21.38;;;;;;;-0.76;100.00;98726.06;4995497;28;20052;-94
2023/01/17 08:50:35;;;;;;;29.38;20.25;;;;;;;-0.82;100.00;98723.84;5022406;28;20055;-94
2023/01/17 08:53:00;;;;;;;27.30;20.65;;;;;;;-0.76;100.00;98722.66;4996888;28;20019;-95
2023/01/17 08:55:26;;;;;;;26.63;21.33;;;;;;;-0.73;100.00;98727.63;4988800;28;20098;-94
2023/01/17 08:57:51;;;;;;;26.10;21.48;;;;;;;-0.71;100.00;98725.78;4982558;28;20062;-94
2023/01/17 09:00:17;;;;;;;29.75;21.42;;;;;;;-0.70;100.00;98722.28;4979224;28;20035;-94
2023/01/17 09:02:43;;;;;;;27.00;21.30;;;;;;;-0.68;100.00;98729.00;4977060;28;20034;-94
2023/01/17 09:05:08;;;;;;;29.02;21.90;;;;;;;-0.65;100.00;98730.56;4974561;28;20046;-94
2023/01/17 09:07:34;;;;;;;30.60;21.70;;;;;;;-0.60;100.00;98730.28;4966412;29;20080;-89
2023/01/17 09:09:59;;;;;;;16.67;7.15;;;;;;;-0.54;100.00;98732.47;4972042;28;20035;-89
2023/01/17 09:12:25;;;;;;;32.58;22.02;;;;;;;-0.59;100.00;98729.34;4971902;28;20062;-89
2023/01/17 09:14:51;;;;;;;31.05;21.55;;;;;;;-0.52;100.00;98730.63;4966798;28;20059;-89
2023/01/17 09:17:16;;;;;;;28.33;22.10;;;;;;;-0.45;100.00;98740.47;4955649;29;20066;-90
2023/01/17 09:19:44;;;;;;;34.00;22.23;;;;;;;-0.43;100.00;98730.03;4969087;28;20041;-90
2023/01/17 09:22:10;;;;;;;27.63;22.70;;;;;;;-0.32;100.00;98727.63;4976056;28;20038;-89
2023/01/17 09:24:36;;;;;;;24.98;21.67;;;;;;;-0.26;100.00;98734.97;4974295;28;20041;-89
2023/01/17 09:27:04;;;;;;;32.83;21.75;;;;;;;-0.18;100.00;98730.16;4974598;28;20043;-89
2023/01/17 09:29:30;;;;;;;27.48;21.70;;;;;;;-0.04;100.00;98740.41;4996633;28;20090;-89
2023/01/17 09:31:55;;;;;;;27.40;21.30;;;;;;;-0.02;100.00;98738.56;4971850;28;20030;-88
2023/01/17 09:34:23;;;;;;;25.67;20.85;;;;;;;0.08;100.00;98735.41;4972338;28;20034;-88
2023/01/17 09:36:51;;;;;;;23.17;19.10;;;;;;;0.10;100.00;98743.88;4973144;28;20027;-88
2023/01/17 09:39:16;;;;;;;29.65;19.17;;;;;;;0.21;100.00;98744.00;4971902;28;20035;-87
2023/01/17 09:41:50;;;;;;;25.35;18.55;;;;;;;0.26;100.00;98740.19;4972629;28;20069;-88
2023/01/17 09:44:55;;;;;;;25.30;19.58;;;;;;;0.39;100.00;98744.53;4972273;28;20527;-87
2023/01/17 09:47:42;;;;;;;25.17;18.38;;;;;;;0.44;100.00;98743.34;4968450;28;20395;-88
2023/01/17 09:50:24;;;;;;;26.05;18.95;;;;;;;0.52;100.00;98746.25;5002254;28;20122;-87
2023/01/17 09:52:59;;;;;;;33.85;18.95;;;;;;;0.58;100.00;98743.25;4971519;28;20038;-85
2023/01/17 09:55:27;;;;;;;23.35;17.83;;;;;;;0.69;100.00;98746.88;4962473;28;20074;-84
2023/01/17 09:58:04;;;;;;;25.10;16.60;;;;;;;0.76;100.00;98754.09;4953156;29;20026;-84
2023/01/17 10:00:30;;;;;;;22.27;16.45;;;;;;;0.76;100.00;98746.34;4951417;29;20045;-84
2023/01/17 10:03:29;;;;;;;599.03;109.32;;;;;;;0.88;100.00;98749.88;4981372;28;20395;-82
2023/01/17 10:06:19;;;;;;;23.50;15.63;;;;;;;0.96;100.00;98760.53;4958707;28;20031;-88
2023/01/17 10:09:15;;;;;;;20.52;15.70;;;;;;;1.00;100.00;98756.81;4983707;28;20093;-85
2023/01/17 10:11:52;;;;;;;22.60;14.85;;;;;;;0.98;100.00;98753.50;4963991;28;20038;-85
2023/01/17 10:14:45;;;;;;;23.13;14.13;;;;;;;1.10;100.00;98764.75;4944064;28;20404;-84
2023/01/17 10:17:39;;;;;;;20.67;14.35;;;;;;;1.13;100.00;98764.53;4970774;28;20045;-85
2023/01/17 10:20:24;;;;;;;22.27;14.23;;;;;;;1.18;100.00;98765.88;5001297;28;20121;-85
2023/01/17 10:23:08;;;;;;;21.63;13.90;;;;;;;1.27;100.00;98768.78;4971795;28;20502;-85
2023/01/17 10:25:45;;;;;;;19.85;13.65;;;;;;;1.28;100.00;98760.09;4971304;28;20492;-85
2023/01/17 10:28:29;;;;;;;18.35;15.15;;;;;;;1.40;100.00;98761.81;4970089;28;20035;-84
2023/01/17 10:31:12;;;;;;;19.30;14.10;;;;;;;1.46;100.00;98766.56;4970992;28;20090;-84
2023/01/17 10:33:46;;;;;;;;;;;;;;;1.57;100.00;98756.25;4971175;28;20438;-85
2023/01/17 10:36:21;;;;;;;17.88;12.93;;;;;;;1.50;100.00;98761.06;4970818;28;19910;-85
2023/01/17 10:38:52;;;;;;;17.73;12.25;;;;;;;1.55;100.00;98771.09;4971502;28;20514;-86
2023/01/17 10:41:27;;;;;;;16.80;12.02;;;;;;;1.56;100.00;98764.97;4963435;28;20035;-85
2023/01/17 10:44:10;;;;;;;18.13;11.45;;;;;;;1.60;100.00;98769.00;4970712;28;20444;-86
2023/01/17 10:46:44;;;;;;;16.80;12.15;;;;;;;1.66;100.00;98771.19;4971737;28;20035;-86
2023/01/17 10:49:23;;;;;;;18.55;13.25;;;;;;;1.71;100.00;98769.09;4970093;28;20124;-86
2023/01/17 10:52:17;;;;;;;17.13;12.80;;;;;;;1.76;100.00;98774.78;4972738;28;20031;-91
2023/01/17 10:54:57;;;;;;;16.08;13.40;;;;;;;1.83;100.00;98776.00;4998840;28;20122;-85
2023/01/17 10:57:26;;;;;;;16.25;12.77;;;;;;;1.89;100.00;98775.56;4970750;28;20394;-86
2023/01/17 10:59:56;;;;;;;17.17;12.70;;;;;;;1.95;100.00;98765.66;4966811;28;20122;-86
2023/01/17 11:02:30;;;;;;;20.85;13.93;;;;;;;1.97;100.00;98763.78;4970102;28;20031;-86
2023/01/17 11:04:56;;;;;;;19.35;13.65;;;;;;;2.02;100.00;98772.94;4967256;28;20045;-87
2023/01/17 11:07:24;;;;;;;19.27;13.75;;;;;;;2.05;100.00;98764.91;4953497;28;20031;-87
2023/01/17 11:09:52;;;;;;;19.25;13.25;;;;;;;2.09;100.00;98762.94;4969108;28;20034;-87
2023/01/17 11:12:26;;;;;;;15.65;13.18;;;;;;;2.18;100.00;98767.44;4966570;28;20039;-87
2023/01/17 11:15:24;;;;;;;17.40;14.18;;;;;;;2.37;100.00;98766.91;4971156;28;20093;-86
2023/01/17 11:17:59;;;;;;;15.65;11.52;;;;;;;2.37;100.00;98757.34;4963874;28;20078;-88
2023/01/17 11:20:27;;;;;;;16.83;12.30;;;;;;;2.46;100.00;98751.50;4975326;28;20117;-87
2023/01/17 11:23:02;;;;;;;18.42;11.63;;;;;;;2.55;100.00;98749.16;4982346;28;20039;-84
2023/01/17 11:25:29;;;;;;;13.75;10.30;;;;;;;2.70;100.00;98755.78;5004928;28;20038;-88
2023/01/17 11:28:00;;;;;;;18.50;10.30;;;;;;;2.75;99.49;98757.09;4981021;28;20061;-87
2023/01/17 11:30:28;;;;;;;17.17;10.52;;;;;;;2.90;99.03;98751.69;4993433;28;20070;-87
2023/01/17 11:32:56;;;;;;;10.82;8.70;;;;;;;2.92;96.21;98752.41;4994492;28;20030;-87
2023/01/17 11:35:26;;;;;;;12.80;8.43;;;;;;;2.97;95.44;98745.09;4993490;28;20449;-87
2023/01/17 11:38:04;;;;;;;13.13;7.82;;;;;;;2.98;93.02;98746.75;4976551;28;20084;-87
2023/01/17 11:40:40;;;;;;;14.93;9.05;;;;;;;3.05;96.81;98746.16;4994187;28;20113;-86
2023/01/17 11:43:13;;;;;;;16.48;9.63;;;;;;;3.15;96.94;98744.50;4976246;28;20026;-85
2023/01/17 11:45:39;;;;;;;13.93;9.10;;;;;;;3.23;97.64;98740.50;4993384;28;20810;-85
2023/01/17 11:48:07;;;;;;;15.73;9.13;;;;;;;3.24;95.28;98742.97;4993266;28;20034;-86
2023/01/17 11:50:36;;;;;;;13.00;8.82;;;;;;;3.18;93.16;98737.41;4976534;28;20050;-86
2023/01/17 11:53:24;;;;;;;14.18;8.27;;;;;;;3.25;95.35;98736.84;4992946;28;20030;-86
2023/01/17 11:56:05;;;;;;;11.95;7.78;;;;;;;3.27;94.81;98736.72;4980450;28;20093;-85
2023/01/17 11:58:33;;;;;;;13.90;8.18;;;;;;;3.31;95.34;98722.53;4988483;28;20141;-81
2023/01/17 12:01:08;;;;;;;10.18;7.45;;;;;;;3.34;92.44;98727.50;4976068;28;20484;-87
2023/01/17 12:03:39;;;;;;;9.63;7.07;;;;;;;3.35;91.92;98721.34;4979866;28;20122;-86
2023/01/17 12:06:18;;;;;;;10.45;7.90;;;;;;;3.41;91.64;98726.06;4997366;28;20043;-87
2023/01/17 12:08:51;;;;;;;10.80;7.28;;;;;;;3.51;90.57;98724.38;4983934;28;20039;-87
2023/01/17 12:14:44;;;;;;;11.10;7.00;;;;;;;3.64;87.94;98738.09;4973422;28;20660;-88
2023/01/17 12:17:15;;;;;;;10.80;7.05;;;;;;;3.69;90.67;98728.13;4972635;28;20049;-87
2023/01/17 12:19:49;;;;;;;11.43;5.65;;;;;;;3.73;89.11;98744.31;4973426;28;20042;-82
2023/01/17 12:22:32;;;;;;;9.57;4.57;;;;;;;3.78;87.24;98732.59;4973705;28;20035;-88
2023/01/17 12:25:36;;;;;;;10.02;4.88;;;;;;;3.85;85.89;98727.72;4976647;28;20042;-83
2023/01/17 12:28:04;;;;;;;9.57;5.20;;;;;;;3.86;84.61;98728.56;4991396;28;20407;-90
2023/01/17 12:31:10;;;;;;;7.28;5.22;;;;;;;3.92;86.35;98722.84;4993031;28;20030;-89
2023/01/17 12:33:51;;;;;;;8.90;4.85;;;;;;;3.89;82.27;98725.69;4976730;28;20092;-87
2023/01/17 12:36:50;;;;;;;8.23;4.43;;;;;;;3.94;84.10;98726.97;5012460;28;20029;-87
2023/01/17 12:39:24;;;;;;;7.25;4.10;;;;;;;3.87;79.42;98725.00;4974048;28;20070;-87
2023/01/17 12:42:12;;;;;;;6.40;4.60;;;;;;;3.99;85.44;98713.59;4998670;28;20057;-88
2023/01/17 12:44:37;;;;;;;5.22;3.38;;;;;;;3.90;79.49;98709.16;4982116;28;20499;-87
2023/01/17 12:47:06;;;;;;;6.40;3.50;;;;;;;3.98;76.70;98714.53;5000307;28;20026;-87
2023/01/17 12:49:50;;;;;;;6.13;3.47;;;;;;;3.96;78.08;98713.84;5000966;28;20037;-87
2023/01/17 12:52:24;;;;;;;7.63;3.95;;;;;;;3.80;76.59;98718.66;5001263;28;20449;-84
2023/01/17 12:54:56;;;;;;;6.70;3.95;;;;;;;3.95;78.12;98717.41;5000185;28;20026;-87
2023/01/17 12:57:33;;;;;;;9.68;5.13;;;;;;;4.02;79.68;98709.00;5000153;28;20034;-88
2023/01/17 13:00:09;;;;;;;6.40;4.68;;;;;;;4.03;81.54;98715.03;5000763;28;20038;-86
2023/01/17 13:02:41;;;;;;;8.23;4.70;;;;;;;4.06;79.09;98706.97;5002237;28;20117;-88